Time;durP1;ratioP1;P1;durP2;ratioP2;P2;SDS_P1;SDS_P2;PMS_P1;PMS_P2;Temp;Humidity;BMP_temperature;BMP_pressure;BME280_temperature;BME280_humidity;BME280_pressure;Samples;Min_cycle;Max_cycle;Signal;HPM_P1;HPM_P2
2022/03/18 00:00:51;;;;;;;;;;;2.50;99.90;;;;;;4972992;28;20478;-72
2022/03/18 00:03:16;;;;;;;;;;;2.50;99.90;;;;;;4988169;28;19972;-72
2022/03/18 00:05:42;;;;;;;;;;;2.50;99.90;;;;;;4988665;28;20768;-72
2022/03/18 00:08:09;;;;;;;;;;;2.40;99.90;;;;;;5005053;28;19959;-72
2022/03/18 00:10:35;;;;;;;;;;;2.30;99.90;;;;;;5008438;28;19932;-72
2022/03/18 00:13:00;;;;;;;;;;;2.20;99.90;;;;;;4988373;28;20382;-72
2022/03/18 00:15:27;;;;;;;;;;;2.20;99.90;;;;;;4974746;28;19924;-72
2022/03/18 00:17:53;;;;;;;;;;;2.20;99.90;;;;;;4991333;28;19972;-72
2022/03/18 00:20:19;;;;;;;;;;;2.20;99.90;;;;;;5007655;28;20278;-72
2022/03/18 00:22:45;;;;;;;;;;;2.30;99.90;;;;;;4989789;28;19951;-72
2022/03/18 00:25:12;;;;;;;;;;;2.30;99.90;;;;;;4989347;28;20077;-72
2022/03/18 00:27:38;;;;;;;;;;;2.30;99.90;;;;;;4990270;28;19929;-72
2022/03/18 00:30:05;;;;;;;;;;;2.40;99.90;;;;;;5007950;28;20012;-72
2022/03/18 00:32:30;;;;;;;;;;;2.30;99.90;;;;;;5006070;28;20028;-73
2022/03/18 00:34:56;;;;;;;;;;;2.40;99.90;;;;;;4992168;28;19928;-72
2022/03/18 00:37:21;;;;;;;;;;;2.20;99.90;;;;;;5005087;28;19971;-72
2022/03/18 00:39:47;;;;;;;;;;;2.20;99.90;;;;;;5007804;28;20726;-72
2022/03/18 00:42:13;;;;;;;;;;;2.00;99.90;;;;;;4989274;28;19940;-72
2022/03/18 00:44:39;;;;;;;;;;;1.90;99.90;;;;;;4992075;28;20044;-72
2022/03/18 00:51:59;;;;;;;;;;;1.90;99.90;;;;;;4992698;28;19990;-72
2022/03/18 00:52:37;;;;;;;;;;;2.00;99.90;;;;;;5014402;28;20562;-72
2022/03/18 00:55:02;;;;;;;;;;;2.00;99.90;;;;;;5010430;28;20373;-72
2022/03/18 00:57:28;;;;;;;;;;;2.10;99.90;;;;;;4991920;28;19929;-72
2022/03/18 00:59:54;;;;;;;;;;;2.10;99.90;;;;;;4977845;28;19932;-72
2022/03/18 01:02:19;;;;;;;;;;;2.10;99.90;;;;;;4990989;28;19929;-72
2022/03/18 01:04:45;;;;;;;;;;;2.10;99.90;;;;;;4987902;28;20863;-72
2022/03/18 01:07:10;;;;;;;;;;;2.00;99.90;;;;;;4986667;28;19929;-72
2022/03/18 01:09:36;;;;;;;;;;;2.00;99.90;;;;;;4989807;28;20003;-72
2022/03/18 01:12:03;;;;;;;;;;;2.00;99.90;;;;;;5007396;28;19929;-72
2022/03/18 01:14:29;;;;;;;;;;;2.00;99.90;;;;;;4989903;28;19933;-72
2022/03/18 01:16:54;;;;;;;;;;;2.00;99.90;;;;;;4988410;28;19932;-72
2022/03/18 01:19:20;;;;;;;;;;;2.00;99.90;;;;;;5005663;28;20345;-72
2022/03/18 01:21:45;;;;;;;;;;;2.10;99.90;;;;;;4988691;28;20275;-72
2022/03/18 01:24:11;;;;;;;;;;;2.00;99.90;;;;;;5005779;28;19929;-72
2022/03/18 01:26:37;;;;;;;;;;;2.10;99.90;;;;;;4985896;28;19972;-72
2022/03/18 01:29:03;;;;;;;;;;;2.10;99.90;;;;;;4989355;28;19929;-72
2022/03/18 01:31:30;;;;;;;;;;;2.10;99.90;;;;;;5007580;28;19936;-72
2022/03/18 01:33:56;;;;;;;;;;;2.10;99.90;;;;;;4990114;28;20664;-72
2022/03/18 01:36:21;;;;;;;;;;;2.00;99.90;;;;;;4989597;28;20070;-72
2022/03/18 01:38:47;;;;;;;;;;;1.90;99.90;;;;;;5003809;28;19933;-72
2022/03/18 01:41:12;;;;;;;;;;;1.80;99.90;;;;;;4985348;28;20417;-72
2022/03/18 01:43:39;;;;;;;;;;;1.80;99.90;;;;;;5002823;28;20061;-72
2022/03/18 01:46:05;;;;;;;;;;;1.80;99.90;;;;;;5007545;28;20412;-72
2022/03/18 01:48:30;;;;;;;;;;;1.60;99.90;;;;;;5007097;28;19987;-72
2022/03/18 01:50:56;;;;;;;;;;;1.50;99.90;;;;;;5009574;28;20566;-72
2022/03/18 01:53:22;;;;;;;;;;;1.50;99.90;;;;;;4992873;28;19929;-72
2022/03/18 01:55:47;;;;;;;;;;;1.40;99.90;;;;;;4994539;28;20327;-72
2022/03/18 01:58:13;;;;;;;;;;;1.60;99.90;;;;;;4974901;28;19936;-72
2022/03/18 02:00:38;;;;;;;;;;;1.60;99.90;;;;;;5007818;28;20009;-72
2022/03/18 02:03:04;;;;;;;;;;;1.70;99.90;;;;;;4986480;28;19929;-72
2022/03/18 02:05:31;;;;;;;;;;;1.70;99.90;;;;;;5010896;28;19936;-72
2022/03/18 02:07:56;;;;;;;;;;;1.70;99.90;;;;;;4989379;28;19929;-72
2022/03/18 02:10:22;;;;;;;;;;;1.80;99.90;;;;;;5013984;28;19929;-72
2022/03/18 02:12:48;;;;;;;;;;;1.70;99.90;;;;;;5010224;28;19939;-72
2022/03/18 02:15:13;;;;;;;;;;;1.70;99.90;;;;;;4994209;28;20019;-72
2022/03/18 02:17:39;;;;;;;;;;;1.70;99.90;;;;;;4976664;28;19936;-72
2022/03/18 02:20:05;;;;;;;;;;;1.70;99.90;;;;;;5009781;28;19964;-72
2022/03/18 02:22:38;;;;;;;;;;;1.80;99.90;;;;;;4974503;28;20302;-72
2022/03/18 02:25:04;;;;;;;;;;;1.80;99.90;;;;;;4990817;28;20344;-72
2022/03/18 02:27:29;;;;;;;;;;;1.70;99.90;;;;;;5008796;28;20467;-72
2022/03/18 02:29:55;;;;;;;;;;;1.70;99.90;;;;;;5010112;28;20295;-72
2022/03/18 02:32:21;;;;;;;;;;;1.60;99.90;;;;;;4989760;28;19929;-72
2022/03/18 02:34:47;;;;;;;;;;;1.70;99.90;;;;;;4991537;28;20542;-72
2022/03/18 02:37:12;;;;;;;;;;;1.60;99.90;;;;;;4988582;28;20579;-72
2022/03/18 02:39:38;;;;;;;;;;;1.40;99.90;;;;;;4989935;28;19933;-72
2022/03/18 02:42:04;;;;;;;;;;;1.40;99.90;;;;;;5009684;28;20669;-72
2022/03/18 02:44:31;;;;;;;;;;;1.40;99.90;;;;;;4990251;28;20568;-72
2022/03/18 02:46:56;;;;;;;;;;;1.40;99.90;;;;;;4990361;28;20004;-72
2022/03/18 02:49:24;;;;;;;;;;;1.50;99.90;;;;;;4990632;28;19935;-72
2022/03/18 02:51:49;;;;;;;;;;;1.50;99.90;;;;;;4995243;28;19929;-72
2022/03/18 02:54:15;;;;;;;;;;;1.40;99.90;;;;;;5009248;28;19932;-72
2022/03/18 02:56:41;;;;;;;;;;;1.20;99.90;;;;;;4997257;28;19928;-72
2022/03/18 02:59:07;;;;;;;;;;;1.40;99.90;;;;;;5012769;28;19933;-72
2022/03/18 03:01:32;;;;;;;;;;;1.30;99.90;;;;;;4997758;28;19929;-72
2022/03/18 03:03:58;;;;;;;;;;;1.40;99.90;;;;;;4978336;28;19968;-72
2022/03/18 03:09:09;;;;;;;;;;;1.50;99.90;;;;;;5009404;28;20485;-72
2022/03/18 03:11:34;;;;;;;;;;;1.50;99.90;;;;;;5006392;28;20585;-72
2022/03/18 03:14:00;;;;;;;;;;;1.50;99.90;;;;;;4976255;28;20017;-72
2022/03/18 03:16:26;;;;;;;;;;;1.40;99.90;;;;;;4993139;28;19935;-72
2022/03/18 03:18:52;;;;;;;;;;;1.30;99.90;;;;;;5006654;28;20013;-72
2022/03/18 03:21:18;;;;;;;;;;;1.20;99.90;;;;;;4993195;28;19935;-72
2022/03/18 03:23:43;;;;;;;;;;;1.10;99.90;;;;;;4992650;28;19940;-72
2022/03/18 03:26:09;;;;;;;;;;;1.20;99.90;;;;;;5011277;28;19929;-72
2022/03/18 03:28:35;;;;;;;;;;;1.20;99.90;;;;;;4990042;28;20590;-72
2022/03/18 03:31:00;;;;;;;;;;;1.10;99.90;;;;;;4990797;28;19929;-72
2022/03/18 03:33:26;;;;;;;;;;;1.20;99.90;;;;;;4989784;28;20789;-72
2022/03/18 03:35:53;;;;;;;;;;;1.20;99.90;;;;;;4992977;28;19935;-72
2022/03/18 03:38:19;;;;;;;;;;;1.20;99.90;;;;;;4989280;28;19929;-72
2022/03/18 03:40:44;;;;;;;;;;;1.30;99.90;;;;;;4975590;28;19940;-72
2022/03/18 03:43:10;;;;;;;;;;;1.10;99.90;;;;;;5009013;28;20468;-72
2022/03/18 03:45:36;;;;;;;;;;;1.00;99.90;;;;;;5016340;28;20512;-72
2022/03/18 03:48:03;;;;;;;;;;;1.10;99.90;;;;;;4997816;28;20283;-72
2022/03/18 03:50:28;;;;;;;;;;;1.10;99.90;;;;;;4979308;28;20507;-72
2022/03/18 03:52:54;;;;;;;;;;;0.90;99.90;;;;;;5010686;28;20023;-72
2022/03/18 03:55:20;;;;;;;;;;;1.00;99.90;;;;;;5009032;28;20610;-72
2022/03/18 03:57:45;;;;;;;;;;;1.00;99.90;;;;;;4989446;28;19928;-72
2022/03/18 04:00:12;;;;;;;;;;;1.00;99.90;;;;;;4970056;28;20584;-72
2022/03/18 04:02:38;;;;;;;;;;;1.00;99.90;;;;;;4987994;28;20186;-72
2022/03/18 04:05:07;;;;;;;;;;;0.90;99.90;;;;;;5006935;28;19929;-72
2022/03/18 04:07:33;;;;;;;;;;;0.90;99.90;;;;;;4988756;28;19925;-72
2022/03/18 04:09:59;;;;;;;;;;;0.90;99.90;;;;;;4990046;28;19943;-72
2022/03/18 04:12:24;;;;;;;;;;;0.80;99.90;;;;;;5009321;28;19929;-72
2022/03/18 04:14:51;;;;;;;;;;;0.90;99.90;;;;;;5005729;28;20043;-72
2022/03/18 04:17:17;;;;;;;;;;;0.90;99.90;;;;;;5005583;28;20958;-72
2022/03/18 04:19:43;;;;;;;;;;;0.80;99.90;;;;;;4983474;28;19928;-72
2022/03/18 04:22:09;;;;;;;;;;;1.10;99.90;;;;;;4990066;28;20456;-72
2022/03/18 04:24:34;;;;;;;;;;;1.00;99.90;;;;;;5005895;28;20278;-72
2022/03/18 04:27:00;;;;;;;;;;;1.00;99.90;;;;;;4986643;28;19928;-72
2022/03/18 04:29:26;;;;;;;;;;;0.80;99.90;;;;;;4990792;28;19990;-72
2022/03/18 04:31:52;;;;;;;;;;;0.80;99.90;;;;;;4989843;28;19936;-72
2022/03/18 04:34:17;;;;;;;;;;;0.90;99.90;;;;;;4973746;28;19940;-72
2022/03/18 04:36:43;;;;;;;;;;;0.80;99.90;;;;;;5009778;28;19932;-72
2022/03/18 04:39:09;;;;;;;;;;;0.90;99.90;;;;;;5004962;28;19924;-72
2022/03/18 04:41:34;;;;;;;;;;;1.00;99.90;;;;;;4987161;28;20459;-72
2022/03/18 04:44:03;;;;;;;;;;;1.00;99.90;;;;;;5006497;28;19954;-72
2022/03/18 04:46:31;;;;;;;;;;;1.00;99.90;;;;;;5009615;28;19932;-72
2022/03/18 04:48:58;;;;;;;;;;;0.90;99.90;;;;;;4992481;28;19993;-72
2022/03/18 04:51:24;;;;;;;;;;;0.90;99.90;;;;;;5009140;28;20259;-73
2022/03/18 04:53:49;;;;;;;;;;;1.00;99.90;;;;;;5012767;28;20420;-72
2022/03/18 04:58:59;;;;;;;;;;;0.90;99.90;;;;;;4989879;28;19929;-72
2022/03/18 05:01:26;;;;;;;;;;;0.90;99.90;;;;;;4985744;28;19948;-72
2022/03/18 05:03:52;;;;;;;;;;;0.90;99.90;;;;;;4990286;28;20054;-73
2022/03/18 05:06:18;;;;;;;;;;;1.00;99.90;;;;;;4989550;28;19959;-72
2022/03/18 05:08:44;;;;;;;;;;;0.90;99.90;;;;;;5007700;28;19940;-72
2022/03/18 05:11:09;;;;;;;;;;;0.80;99.90;;;;;;4992036;28;19929;-72
2022/03/18 05:13:35;;;;;;;;;;;0.70;99.90;;;;;;5006231;28;19925;-72
2022/03/18 05:16:00;;;;;;;;;;;0.70;99.90;;;;;;4991884;28;20004;-72
2022/03/18 05:18:26;;;;;;;;;;;0.70;99.90;;;;;;4988893;28;20147;-73
2022/03/18 05:20:52;;;;;;;;;;;0.60;99.90;;;;;;5009552;28;19936;-72
2022/03/18 05:23:17;;;;;;;;;;;0.70;99.90;;;;;;4984956;28;20134;-72
2022/03/18 05:25:43;;;;;;;;;;;0.80;99.90;;;;;;5008569;28;20439;-72
2022/03/18 05:28:09;;;;;;;;;;;0.80;99.90;;;;;;5005212;28;19935;-72
2022/03/18 05:30:35;;;;;;;;;;;0.70;99.90;;;;;;4994208;28;19935;-72
2022/03/18 05:33:00;;;;;;;;;;;0.70;99.90;;;;;;5004241;28;20108;-72
2022/03/18 05:35:26;;;;;;;;;;;0.70;99.90;;;;;;5005210;28;19947;-72
2022/03/18 05:37:51;;;;;;;;;;;0.70;99.90;;;;;;5006368;28;19929;-72
2022/03/18 05:40:18;;;;;;;;;;;0.80;99.90;;;;;;5026410;28;20674;-72
2022/03/18 05:42:45;;;;;;;;;;;0.80;99.90;;;;;;5023773;28;19990;-72
2022/03/18 05:45:11;;;;;;;;;;;0.80;99.90;;;;;;5023684;28;20263;-72
2022/03/18 05:47:37;;;;;;;;;;;0.70;99.90;;;;;;5022092;28;19935;-72
2022/03/18 05:50:05;;;;;;;;;;;0.90;99.90;;;;;;5007082;28;19933;-72
2022/03/18 05:52:31;;;;;;;;;;;0.80;99.90;;;;;;4999972;28;19951;-72
2022/03/18 05:54:57;;;;;;;;;;;0.80;99.90;;;;;;5008912;28;20218;-72
2022/03/18 05:57:26;;;;;;;;;;;0.90;99.90;;;;;;5009466;28;20421;-71
2022/03/18 05:59:53;;;;;;;;;;;0.90;99.90;;;;;;4994238;28;20598;-71
2022/03/18 06:02:18;;;;;;;;;;;1.10;99.90;;;;;;5009232;28;20360;-71
2022/03/18 06:04:44;;;;;;;;;;;1.40;99.90;;;;;;4993803;28;19928;-72
2022/03/18 06:07:11;;;;;;;;;;;1.30;99.90;;;;;;5010219;28;19933;-72
2022/03/18 06:12:21;;;;;;;;;;;1.40;99.90;;;;;;5010441;28;19968;-72
2022/03/18 06:14:46;;;;;;;;;;;1.50;99.90;;;;;;4991842;28;20243;-73
2022/03/18 06:17:12;;;;;;;;;;;1.50;99.90;;;;;;4974291;28;20036;-72
2022/03/18 06:19:38;;;;;;;;;;;1.70;99.90;;;;;;4995750;28;19999;-72
2022/03/18 06:22:03;;;;;;;;;;;1.80;99.90;;;;;;4991696;28;19928;-72
2022/03/18 06:24:30;;;;;;;;;;;2.00;99.90;;;;;;5012952;28;19937;-72
2022/03/18 06:26:56;;;;;;;;;;;2.10;99.90;;;;;;4995306;28;19937;-72
2022/03/18 06:29:22;;;;;;;;;;;2.20;99.90;;;;;;4982465;28;20603;-72
2022/03/18 06:31:48;;;;;;;;;;;2.30;99.90;;;;;;4997089;28;19935;-72
2022/03/18 06:34:14;;;;;;;;;;;2.60;99.90;;;;;;4996184;28;19929;-72
2022/03/18 06:36:40;;;;;;;;;;;2.80;99.90;;;;;;4995045;28;19994;-72
2022/03/18 06:39:07;;;;;;;;;;;2.90;99.90;;;;;;4997191;28;20520;-72
2022/03/18 06:41:32;;;;;;;;;;;3.00;99.90;;;;;;4997299;28;20429;-73
2022/03/18 06:43:58;;;;;;;;;;;2.80;99.90;;;;;;4995876;28;19929;-72
2022/03/18 06:46:24;;;;;;;;;;;2.90;99.90;;;;;;4991665;28;19929;-72
2022/03/18 06:48:50;;;;;;;;;;;3.10;99.90;;;;;;5011646;28;19924;-72
2022/03/18 06:51:16;;;;;;;;;;;3.40;99.90;;;;;;5000431;28;19951;-72
2022/03/18 06:53:42;;;;;;;;;;;3.70;99.90;;;;;;4985250;28;19929;-72
2022/03/18 06:56:08;;;;;;;;;;;3.80;99.90;;;;;;5005431;28;19928;-72
2022/03/18 06:58:34;;;;;;;;;;;3.90;99.90;;;;;;5006643;28;20334;-72
2022/03/18 07:01:00;;;;;;;;;;;4.20;99.90;;;;;;5026066;28;19929;-73
2022/03/18 07:03:25;;;;;;;;;;;4.30;99.90;;;;;;5027880;28;19939;-72
2022/03/18 07:05:51;;;;;;;;;;;4.40;99.90;;;;;;5004712;28;19928;-73
2022/03/18 07:08:17;;;;;;;;;;;4.60;99.90;;;;;;5023956;28;20343;-73
2022/03/18 07:10:43;;;;;;;;;;;4.80;99.90;;;;;;5019874;28;20008;-72
2022/03/18 07:13:08;;;;;;;;;;;4.90;99.90;;;;;;5004570;28;19929;-72
2022/03/18 07:15:34;;;;;;;;;;;5.20;99.90;;;;;;5022166;28;20243;-72
2022/03/18 07:17:59;;;;;;;;;;;5.10;99.90;;;;;;5005915;28;19928;-73
2022/03/18 07:20:26;;;;;;;;;;;5.20;99.90;;;;;;5022854;28;20376;-72
2022/03/18 07:23:01;;;;;;;;;;;5.60;99.90;;;;;;5006031;28;19928;-72
2022/03/18 07:25:27;;;;;;;;;;;5.80;99.90;;;;;;5024088;28;19932;-72
2022/03/18 07:27:52;;;;;;;;;;;6.10;99.90;;;;;;5005429;28;19936;-72
2022/03/18 07:30:18;;;;;;;;;;;6.20;99.90;;;;;;5024513;28;20047;-72
2022/03/18 07:32:43;;;;;;;;;;;6.40;99.90;;;;;;5006787;28;20370;-72
2022/03/18 07:35:10;;;;;;;;;;;6.60;99.90;;;;;;4969805;28;19932;-72
2022/03/18 07:37:36;;;;;;;;;;;6.70;99.90;;;;;;4986560;28;20013;-72
2022/03/18 07:40:02;;;;;;;;;;;6.80;99.90;;;;;;5004619;28;20071;-72
2022/03/18 07:42:27;;;;;;;;;;;7.00;99.90;;;;;;5004543;28;20043;-72
2022/03/18 07:44:53;;;;;;;;;;;7.10;99.90;;;;;;5003733;28;20283;-72
2022/03/18 07:47:18;;;;;;;;;;;7.30;99.90;;;;;;5024103;28;20478;-72
2022/03/18 07:49:44;;;;;;;;;;;7.30;99.90;;;;;;5020034;28;19936;-73
2022/03/18 07:52:10;;;;;;;;;;;7.50;99.90;;;;;;5007253;28;19932;-72
2022/03/18 07:54:35;;;;;;;;;;;7.70;99.90;;;;;;5005856;28;19935;-72
2022/03/18 07:57:01;;;;;;;;;;;7.80;99.90;;;;;;5004902;28;19929;-72
2022/03/18 07:59:26;;;;;;;;;;;8.00;99.90;;;;;;5022937;28;20457;-72
2022/03/18 08:01:52;;;;;;;;;;;8.20;99.90;;;;;;5004170;28;20559;-73
2022/03/18 08:04:17;;;;;;;;;;;8.30;99.90;;;;;;5004792;28;19939;-72
2022/03/18 08:06:43;;;;;;;;;;;8.50;99.90;;;;;;5000788;28;19933;-73
2022/03/18 08:09:09;;;;;;;;;;;8.70;99.90;;;;;;5002041;28;19929;-73
2022/03/18 08:11:35;;;;;;;;;;;8.70;99.90;;;;;;4998958;28;20296;-73
2022/03/18 08:14:00;;;;;;;;;;;8.80;99.90;;;;;;4997538;28;19982;-73
2022/03/18 08:16:26;;;;;;;;;;;9.00;99.90;;;;;;5020517;28;19944;-72
2022/03/18 08:18:54;;;;;;;;;;;9.20;99.90;;;;;;4986649;28;20857;-72
2022/03/18 08:21:19;;;;;;;;;;;9.30;99.90;;;;;;5003310;28;19972;-73
2022/03/18 08:23:45;;;;;;;;;;;9.50;99.90;;;;;;5002666;28;20033;-73
2022/03/18 08:26:11;;;;;;;;;;;9.70;99.90;;;;;;5002216;28;20502;-72
2022/03/18 08:28:36;;;;;;;;;;;9.80;99.90;;;;;;4999544;28;19944;-72
2022/03/18 08:31:02;;;;;;;;;;;9.90;99.90;;;;;;5003339;28;20322;-72
2022/03/18 08:33:27;;;;;;;;;;;10.00;99.90;;;;;;5002004;28;20396;-72
2022/03/18 08:35:53;;;;;;;;;;;10.20;99.90;;;;;;5002435;28;19960;-73
2022/03/18 08:38:18;;;;;;;;;;;10.40;99.90;;;;;;5007042;28;19929;-72
2022/03/18 08:40:44;;;;;;;;;;;10.30;99.90;;;;;;5000914;28;19929;-72
2022/03/18 08:43:10;;;;;;;;;;;10.40;99.90;;;;;;5003068;28;19936;-73
2022/03/18 08:45:35;;;;;;;;;;;10.80;99.90;;;;;;5001540;28;20030;-73
2022/03/18 08:48:01;;;;;;;;;;;10.60;99.90;;;;;;4987108;28;20496;-73
2022/03/18 08:50:27;;;;;;;;;;;10.90;99.90;;;;;;5004965;28;19929;-73
2022/03/18 08:52:53;;;;;;;;;;;11.00;99.90;;;;;;4998463;28;19929;-72
2022/03/18 08:55:19;;;;;;;;;;;11.10;99.90;;;;;;4998891;28;20019;-73
2022/03/18 08:57:45;;;;;;;;;;;11.10;99.90;;;;;;5000285;28;19972;-73
2022/03/18 09:00:14;;;;;;;;;;;11.40;99.90;;;;;;5001621;28;20019;-73
2022/03/18 09:02:40;;;;;;;;;;;11.30;99.90;;;;;;5001663;28;19929;-73
2022/03/18 09:05:07;;;;;;;;;;;11.40;99.90;;;;;;4995722;28;20678;-73
2022/03/18 09:07:33;;;;;;;;;;;11.80;99.90;;;;;;5015132;28;19933;-72
2022/03/18 09:09:59;;;;;;;;;;;11.20;99.90;;;;;;5019032;28;20407;-72
2022/03/18 09:12:26;;;;;;;;;;;10.90;99.90;;;;;;5004688;28;19935;-73
2022/03/18 09:14:51;;;;;;;;;;;11.40;99.90;;;;;;5006727;28;19929;-73
2022/03/18 09:17:18;;;;;;;;;;;11.00;99.90;;;;;;5023995;28;20416;-73
2022/03/18 09:19:44;;;;;;;;;;;11.10;99.90;;;;;;5007542;28;19925;-73
2022/03/18 09:22:10;;;;;;;;;;;11.20;99.90;;;;;;5007424;28;19929;-73
2022/03/18 09:24:36;;;;;;;;;;;11.40;99.90;;;;;;5025388;28;19929;-73
2022/03/18 09:27:02;;;;;;;;;;;11.40;99.90;;;;;;5007199;28;19971;-73
2022/03/18 09:29:28;;;;;;;;;;;11.40;99.90;;;;;;5024312;28;20039;-73
2022/03/18 09:31:53;;;;;;;;;;;11.60;99.90;;;;;;5008736;28;20449;-73
2022/03/18 09:34:24;;;;;;;;;;;12.40;99.90;;;;;;5009440;28;19979;-73
2022/03/18 09:36:51;;;;;;;;;;;12.30;99.90;;;;;;5009748;28;19975;-73
2022/03/18 09:39:16;;;;;;;;;;;11.40;99.90;;;;;;5005847;28;19929;-73
2022/03/18 09:41:42;;;;;;;;;;;11.90;99.90;;;;;;5009884;28;19929;-73
2022/03/18 09:44:10;;;;;;;;;;;11.80;99.90;;;;;;4993156;28;19933;-73
2022/03/18 09:46:35;;;;;;;;;;;11.90;99.90;;;;;;5026504;28;19929;-73
2022/03/18 09:49:01;;;;;;;;;;;12.10;99.90;;;;;;5011544;28;19957;-73
2022/03/18 09:51:27;;;;;;;;;;;12.50;99.90;;;;;;5006881;28;20430;-73
2022/03/18 09:53:53;;;;;;;;;;;12.40;99.90;;;;;;5022416;28;19979;-73
2022/03/18 09:56:19;;;;;;;;;;;12.70;99.90;;;;;;5025111;28;20019;-73
2022/03/18 09:58:44;;;;;;;;;;;12.50;99.90;;;;;;5010073;28;20361;-73
2022/03/18 10:01:10;;;;;;;;;;;12.60;99.90;;;;;;5008962;28;19967;-73
2022/03/18 10:03:40;;;;;;;;;;;12.90;99.90;;;;;;5026115;28;20024;-73
2022/03/18 10:06:06;;;;;;;;;;;13.00;99.90;;;;;;5027684;28;19929;-73
2022/03/18 10:08:35;;;;;;;;;;;12.50;99.90;;;;;;5008193;28;19998;-72
2022/03/18 10:11:12;;;;;;;;;;;12.70;99.90;;;;;;5008714;28;19928;-73
2022/03/18 10:13:53;;;;;;;;;;;12.60;99.90;;;;;;5010455;28;20653;-74
2022/03/18 10:16:33;;;;;;;;;;;12.60;99.90;;;;;;5009984;28;20405;-73
2022/03/18 10:18:59;;;;;;;;;;;13.30;99.90;;;;;;5005481;28;20512;-73
2022/03/18 10:21:25;;;;;;;;;;;13.40;99.90;;;;;;5023627;28;19955;-73
2022/03/18 10:24:03;;;;;;;;;;;13.10;99.90;;;;;;5025762;28;19925;-73
2022/03/18 10:26:28;;;;;;;;;;;13.50;99.90;;;;;;5007779;28;19935;-73
2022/03/18 10:29:00;;;;;;;;;;;14.00;99.90;;;;;;5004966;28;19928;-73
2022/03/18 10:31:25;;;;;;;;;;;13.70;99.90;;;;;;5007220;28;19928;-73
2022/03/18 10:39:39;;;;;;;;;;;13.40;99.90;;;;;;5024637;28;19955;-73
2022/03/18 10:42:09;;;;;;;;;;;14.40;99.90;;;;;;5010105;28;19971;-73
2022/03/18 10:44:54;;;;;;;;;;;13.40;99.90;;;;;;5006051;28;20394;-73
2022/03/18 10:47:22;;;;;;;;;;;13.80;99.90;;;;;;5014023;28;20002;-73
2022/03/18 10:49:48;;;;;;;;;;;14.20;99.90;;;;;;5013698;28;19932;-73
2022/03/18 10:52:14;;;;;;;;;;;14.20;99.90;;;;;;5011930;28;20762;-73
2022/03/18 10:54:40;;;;;;;;;;;14.10;99.90;;;;;;5000412;28;20146;-73
2022/03/18 10:57:05;;;;;;;;;;;14.70;99.90;;;;;;4992454;28;20382;-73
2022/03/18 10:59:31;;;;;;;;;;;14.50;99.90;;;;;;4993988;28;19951;-73
2022/03/18 11:01:57;;;;;;;;;;;14.10;99.90;;;;;;5008419;28;19939;-73
2022/03/18 11:04:24;;;;;;;;;;;15.00;99.90;;;;;;4984290;28;19936;-73
2022/03/18 11:12:26;;;;;;;;;;;14.00;99.90;;;;;;5004798;28;19932;-73
2022/03/18 11:14:53;;;;;;;;;;;14.20;99.90;;;;;;5022633;28;19967;-73
2022/03/18 11:17:20;;;;;;;;;;;14.30;99.90;;;;;;5007529;28;20058;-73
2022/03/18 11:19:46;;;;;;;;;;;15.10;99.90;;;;;;4985572;28;19929;-73
2022/03/18 11:22:13;;;;;;;;;;;14.50;99.90;;;;;;5024197;28;19929;-73
2022/03/18 11:24:39;;;;;;;;;;;14.20;99.90;;;;;;5001390;28;20027;-73
2022/03/18 11:27:05;;;;;;;;;;;14.40;99.90;;;;;;5002229;28;20684;-73
2022/03/18 11:29:33;;;;;;;;;;;15.10;99.90;;;;;;5003651;28;19929;-73
2022/03/18 11:32:26;;;;;;;;;;;15.00;99.90;;;;;;5006454;28;19932;-73
2022/03/18 11:34:58;;;;;;;;;;;14.50;99.90;;;;;;5014037;28;19929;-72
2022/03/18 11:37:29;;;;;;;;;;;14.50;99.90;;;;;;5003849;28;19932;-73
2022/03/18 11:40:27;;;;;;;;;;;15.00;99.90;;;;;;4999760;28;20007;-73
2022/03/18 11:42:56;;;;;;;;;;;15.30;99.90;;;;;;5018806;28;19936;-73
2022/03/18 11:45:36;;;;;;;;;;;15.60;99.90;;;;;;5025908;28;19933;-73
2022/03/18 11:48:22;;;;;;;;;;;15.30;99.90;;;;;;5005866;28;20558;-73
2022/03/18 11:50:47;;;;;;;;;;;16.10;99.90;;;;;;5004138;28;19928;-73
2022/03/18 11:53:14;;;;;;;;;;;16.30;99.90;;;;;;5024530;28;20420;-73
2022/03/18 11:55:43;;;;;;;;;;;15.70;99.90;;;;;;5009472;28;19972;-73
2022/03/18 11:58:28;;;;;;;;;;;15.90;99.90;;;;;;5006285;28;20330;-73
2022/03/18 12:00:53;;;;;;;;;;;16.00;99.90;;;;;;5005287;28;19928;-74
2022/03/18 12:03:21;;;;;;;;;;;16.30;93.90;;;;;;5013188;28;19936;-73
2022/03/18 12:05:54;;;;;;;;;;;16.40;98.60;;;;;;5006159;28;20622;-73
2022/03/18 12:08:40;;;;;;;;;;;16.00;89.10;;;;;;4989173;28;19932;-73
2022/03/18 12:11:23;;;;;;;;;;;16.20;93.30;;;;;;5005879;28;19936;-73
2022/03/18 12:13:49;;;;;;;;;;;15.70;92.80;;;;;;5005127;28;19954;-73
2022/03/18 12:16:17;;;;;;;;;;;15.90;99.90;;;;;;5006124;28;19933;-73
2022/03/18 12:18:43;;;;;;;;;;;16.10;92.30;;;;;;5021210;28;19932;-74
2022/03/18 12:21:09;;;;;;;;;;;16.10;95.60;;;;;;4988074;28;19933;-73
2022/03/18 12:23:35;;;;;;;;;;;15.70;86.70;;;;;;5023349;28;19952;-73
2022/03/18 12:26:05;;;;;;;;;;;16.20;99.20;;;;;;5005400;28;19929;-73
2022/03/18 12:28:46;;;;;;;;;;;16.10;97.50;;;;;;5002849;28;19963;-73
2022/03/18 12:31:13;;;;;;;;;;;15.60;97.10;;;;;;5003765;28;20404;-73
2022/03/18 12:33:38;;;;;;;;;;;15.90;94.10;;;;;;5017162;28;19994;-73
2022/03/18 12:36:04;;;;;;;;;;;15.70;85.00;;;;;;5002260;28;20425;-73
2022/03/18 12:38:31;;;;;;;;;;;16.50;90.40;;;;;;5001321;28;19933;-73
2022/03/18 12:40:58;;;;;;;;;;;16.80;91.30;;;;;;5001749;28;19933;-73
2022/03/18 12:43:25;;;;;;;;;;;16.40;90.80;;;;;;5019315;28;19936;-73
2022/03/18 12:45:51;;;;;;;;;;;16.60;86.50;;;;;;5001279;28;20751;-73
2022/03/18 12:48:18;;;;;;;;;;;16.30;87.30;;;;;;4989511;28;19933;-73
2022/03/18 12:50:45;;;;;;;;;;;16.00;85.80;;;;;;4987284;28;19986;-73
2022/03/18 12:53:11;;;;;;;;;;;16.10;91.00;;;;;;4999196;28;19975;-73
2022/03/18 12:55:36;;;;;;;;;;;16.00;83.00;;;;;;5003490;28;19929;-74
2022/03/18 12:58:04;;;;;;;;;;;16.40;87.40;;;;;;4995594;28;19928;-74
2022/03/18 13:00:37;;;;;;;;;;;16.60;78.20;;;;;;5018175;28;19933;-73
2022/03/18 13:03:05;;;;;;;;;;;16.30;76.80;;;;;;4999004;28;19944;-74
2022/03/18 13:05:31;;;;;;;;;;;15.70;82.50;;;;;;5023561;28;19936;-73
2022/03/18 13:07:58;;;;;;;;;;;16.30;83.30;;;;;;5002451;28;19928;-73
2022/03/18 13:10:24;;;;;;;;;;;16.20;84.90;;;;;;4990556;28;19932;-74
2022/03/18 13:12:49;;;;;;;;;;;15.70;83.90;;;;;;5021189;28;20134;-73
2022/03/18 13:15:16;;;;;;;;;;;15.20;91.70;;;;;;5000779;28;20973;-74
2022/03/18 13:17:44;;;;;;;;;;;15.20;83.00;;;;;;5005128;28;20976;-73
2022/03/18 13:20:22;;;;;;;;;;;15.90;87.90;;;;;;5017894;28;20408;-73
2022/03/18 13:22:48;;;;;;;;;;;16.20;85.60;;;;;;4998795;28;19944;-74
2022/03/18 13:25:14;;;;;;;;;;;16.40;78.50;;;;;;4984834;28;19929;-73
2022/03/18 13:27:41;;;;;;;;;;;16.80;75.70;;;;;;4980829;28;20960;-73
2022/03/18 13:32:56;;;;;;;;;;;16.60;73.10;;;;;;5016376;28;19928;-74
2022/03/18 13:35:23;;;;;;;;;;;16.80;73.80;;;;;;5017492;28;20328;-74
2022/03/18 13:38:09;;;;;;;;;;;16.60;69.90;;;;;;4994735;28;19933;-73
2022/03/18 13:40:36;;;;;;;;;;;16.60;73.60;;;;;;4993981;28;19928;-74
2022/03/18 13:43:07;;;;;;;;;;;16.20;72.60;;;;;;4994020;28;19939;-74
2022/03/18 13:45:33;;;;;;;;;;;16.10;70.40;;;;;;5009124;28;20299;-73
2022/03/18 13:47:59;;;;;;;;;;;16.40;73.40;;;;;;5012809;28;19983;-74
2022/03/18 13:50:40;;;;;;;;;;;16.20;72.20;;;;;;4978633;28;20047;-73
2022/03/18 13:53:23;;;;;;;;;;;16.30;72.00;;;;;;5015697;28;20414;-73
2022/03/18 13:55:51;;;;;;;;;;;16.20;74.10;;;;;;5017300;28;19935;-74
2022/03/18 13:58:25;;;;;;;;;;;15.90;74.40;;;;;;5012370;28;20043;-74
2022/03/18 14:00:51;;;;;;;;;;;15.40;79.40;;;;;;4997053;28;19929;-73
2022/03/18 14:03:17;;;;;;;;;;;15.80;80.70;;;;;;4978576;28;19939;-74
2022/03/18 14:05:46;;;;;;;;;;;16.20;80.80;;;;;;4995705;28;19973;-73
2022/03/18 14:08:25;;;;;;;;;;;16.20;75.40;;;;;;4998405;28;19998;-74
2022/03/18 14:10:50;;;;;;;;;;;16.60;74.60;;;;;;5017763;28;19929;-74
2022/03/18 14:13:16;;;;;;;;;;;16.80;80.00;;;;;;5019942;28;19928;-74
2022/03/18 14:15:44;;;;;;;;;;;17.10;76.40;;;;;;5002900;28;20493;-73
2022/03/18 14:18:11;;;;;;;;;;;17.10;74.50;;;;;;5022621;28;19963;-73
2022/03/18 14:20:52;;;;;;;;;;;16.30;77.30;;;;;;5019189;28;19928;-74
2022/03/18 14:23:28;;;;;;;;;;;16.60;73.90;;;;;;5022937;28;21067;-74
2022/03/18 14:25:54;;;;;;;;;;;16.40;76.30;;;;;;4983246;28;19971;-73
2022/03/18 14:28:20;;;;;;;;;;;15.70;76.90;;;;;;5002376;28;19994;-73
2022/03/18 14:30:47;;;;;;;;;;;15.90;75.70;;;;;;5018217;28;19932;-73
2022/03/18 14:33:13;;;;;;;;;;;16.00;73.60;;;;;;5015640;28;20015;-73
2022/03/18 14:35:38;;;;;;;;;;;16.30;73.30;;;;;;5019692;28;19939;-74
2022/03/18 14:38:04;;;;;;;;;;;16.50;73.20;;;;;;5000360;28;20719;-73
2022/03/18 14:40:30;;;;;;;;;;;16.60;73.40;;;;;;4999665;28;19929;-73
2022/03/18 14:42:55;;;;;;;;;;;16.50;76.30;;;;;;4978817;28;19995;-73
2022/03/18 14:45:21;;;;;;;;;;;16.50;74.90;;;;;;4993538;28;20325;-73
2022/03/18 14:47:47;;;;;;;;;;;16.10;69.00;;;;;;4988362;28;19932;-73